FSIAHTZA

Guest
Details From FSIA - Seychelles Intl
To HTZA - Zanzibar
Flight Number -
Tags Generated
Created
Modified
Stats Distance 978 nm / 1,811 km
Max Altitude 0 ft / 0 m
Waypoints 2
Social Downloads 0
Likes 0
Share VATSIM

Download

Looking for another format? Having issues loading an existing format? Contact us
Advertisement - Login to hide

Notes

Generated

Route

FSIA HTZA

ID Type Via Altitude Latitude Longitude Leg Dist Tot Dist Heading (true) Name
O FSIA APT - 0 ft / 0 m -4.66663˚ 55.51080˚ - 0 nm - -
O HTZA APT - 0 ft / 0 m -6.21098˚ 39.22377˚ 978 nm 978 nm 264° / 265° -

Altitude Profile

Advertisement - Login to hide

Weather


0- 5 10 15 20 25 30 35+ Temperature / ° C

Clouds and Precipitation
Forecast for 2018-05-27 00:00 UTC. Updated 4 hours ago

Ground ~20,000 ft ~40,000 ft Winds

FSIA

Details ICAO FSIA (SEZ)
Name SEYCHELLES INTL
Region Seychelles
Timezone Unknown (UTC+0.0)
Stats Elevation 10 ft / 3 m (AMSL)
Location -4.674378° 55.521829°
Runways 1
Magnetic Variation 5.030° W

METAR

FSIA 270300Z 14005KT 100V170 9999 R13///// -SHRA BKN017 27/25 Q1010 TEMPO 9999 -SHRA

Decode

TAF

TAF FSIA 262304Z 2700/2724 15010KT 9999 SCT018 PROB40 TEMPO 2702/2707 -SHRA BKN018

Decode

Departure Runways

ID Width Length Bearing (true) Bearing (mag) Surface Threshold Offset Overrun Length
13 151 ft / 46 m 9,813 ft / 2,991 m 125.18° 130.21° Concrete 1,001 ft / 305 m 279 ft / 85 m
31 151 ft / 46 m 9,813 ft / 2,991 m 305.18° 310.21° Concrete 1,001 ft / 305 m 115 ft / 35 m

HTZA

Details ICAO HTZA (ZNZ)
Name ZANZIBAR
Region Tanzania
Timezone Africa/Dar_es_Salaam (UTC+3.0)
Stats Elevation 54 ft / 16 m (AMSL)
Location -6.222024° 39.224885°
Runways 1
Magnetic Variation 1.805° W

METAR

HTZA 270300Z 22007KT 9999 FEW016 25/23 Q1015 NOSIG

Decode

TAF

HTZA 262300Z 2700/2724 00000KT 9999 SCT016 FEW018 BECMG 2703/2705 22010KT BKN016 FEW018CB PROB30 TEMPO 2705/2709 RA BECMG 2714/2716 16010KT SCT020 FEW022CB

Decode

Destination Runways

ID Width Length Bearing (true) Bearing (mag) Surface Threshold Offset Overrun Length
18 148 ft / 45 m 8,100 ft / 2,469 m 174.27° 176.08° Asphalt 0 ft / 0 m 0 ft / 0 m
36 148 ft / 45 m 8,100 ft / 2,469 m 354.27° 356.08° Asphalt 0 ft / 0 m 0 ft / 0 m

Popular Alternatives